createdAt,value
2023-04-13T00:02:19.826Z,8.06
2023-04-13T00:04:46.513Z,8.04
2023-04-13T00:07:16.912Z,8.07
2023-04-13T00:09:45.380Z,8.06
2023-04-13T00:12:12.690Z,8.08
2023-04-13T00:14:39.239Z,8.09
2023-04-13T00:17:05.866Z,8.13
2023-04-13T00:19:36.759Z,8.15
2023-04-13T00:22:04.496Z,8.16
2023-04-13T00:24:31.083Z,8.18
2023-04-13T00:26:57.618Z,8.22
2023-04-13T00:29:24.202Z,8.23
2023-04-13T00:31:50.750Z,8.26
2023-04-13T00:34:17.245Z,8.31
2023-04-13T00:36:43.837Z,8.34
2023-04-13T00:39:10.504Z,8.35
2023-04-13T00:41:37.055Z,8.39
2023-04-13T00:44:03.642Z,8.39
2023-04-13T00:46:31.547Z,8.44
2023-04-13T00:49:01.705Z,8.47
2023-04-13T00:51:30.341Z,8.51
2023-04-13T00:53:59.441Z,8.54
2023-04-13T00:56:27.336Z,8.56
2023-04-13T00:58:55.197Z,8.59
2023-04-13T01:01:21.839Z,8.59
2023-04-13T01:03:49.638Z,8.56
2023-04-13T01:06:34.021Z,8.51
2023-04-13T01:09:11.251Z,8.50
2023-04-13T01:11:43.684Z,8.51
2023-04-13T01:14:23.273Z,8.51
2023-04-13T01:16:57.329Z,8.54
2023-04-13T01:19:56.866Z,8.55
2023-04-13T01:22:27.313Z,8.59
2023-04-13T01:25:18.433Z,8.62
2023-04-13T01:27:50.760Z,8.65
2023-04-13T01:30:26.309Z,8.69
2023-04-13T01:32:53.577Z,8.72
2023-04-13T01:35:25.622Z,8.72
2023-04-13T01:37:52.338Z,8.69
2023-04-13T01:40:21.216Z,8.73
2023-04-13T01:42:47.925Z,8.71
2023-04-13T01:45:18.586Z,8.69
2023-04-13T01:47:54.482Z,8.68
2023-04-13T01:50:46.097Z,8.64
2023-04-13T01:53:17.356Z,8.63
2023-04-13T01:55:44.807Z,8.62
2023-04-13T01:58:13.533Z,8.62
2023-04-13T02:00:41.249Z,8.61
2023-04-13T02:03:09.899Z,8.61
2023-04-13T02:05:42.941Z,8.61
2023-04-13T02:08:09.697Z,8.60
2023-04-13T02:10:37.711Z,8.61
2023-04-13T02:13:04.520Z,8.63
2023-04-13T02:15:35.609Z,8.60
2023-04-13T02:18:02.370Z,8.57
2023-04-13T02:20:30.703Z,8.58
2023-04-13T02:22:57.187Z,8.58
2023-04-13T02:25:23.930Z,8.52
2023-04-13T02:27:51.558Z,8.48
2023-04-13T02:30:18.077Z,8.47
2023-04-13T02:32:49.476Z,8.41
2023-04-13T02:35:16.129Z,8.38
2023-04-13T02:37:42.760Z,8.36
2023-04-13T02:40:12.534Z,8.33
2023-04-13T02:42:39.499Z,8.33
2023-04-13T02:45:07.792Z,8.32
2023-04-13T02:47:34.870Z,8.32
2023-04-13T02:50:02.049Z,8.34
2023-04-13T02:52:28.802Z,8.33
2023-04-13T02:54:55.414Z,8.29
2023-04-13T02:57:22.488Z,8.29
2023-04-13T02:59:49.673Z,8.30
2023-04-13T03:02:17.396Z,8.30
2023-04-13T03:04:44.535Z,8.30
2023-04-13T03:07:14.582Z,8.32
2023-04-13T03:09:41.808Z,8.31
2023-04-13T03:12:09.212Z,8.32
2023-04-13T03:14:36.881Z,8.30
2023-04-13T03:17:08.316Z,8.30
2023-04-13T03:19:36.209Z,8.32
2023-04-13T03:22:02.882Z,8.30
2023-04-13T03:24:29.536Z,8.30
2023-04-13T03:26:57.071Z,8.32
2023-04-13T03:29:24.488Z,8.31
2023-04-13T03:31:51.561Z,8.31
2023-04-13T03:34:18.700Z,8.32
2023-04-13T03:36:45.880Z,8.30
2023-04-13T03:39:12.415Z,8.32
2023-04-13T03:41:39.003Z,8.31
2023-04-13T03:44:05.871Z,8.32
2023-04-13T03:46:33.249Z,8.32
2023-04-13T03:48:59.938Z,8.32
2023-04-13T03:51:27.832Z,8.28
2023-04-13T03:53:55.072Z,8.28
2023-04-13T03:56:21.669Z,8.25
2023-04-13T03:58:48.228Z,8.24
2023-04-13T04:01:15.011Z,8.23
2023-04-13T04:03:41.665Z,8.20
2023-04-13T04:06:08.928Z,8.16
2023-04-13T04:08:35.793Z,8.15
2023-04-13T04:11:02.980Z,8.12
2023-04-13T04:13:29.535Z,8.10
2023-04-13T04:15:56.578Z,8.02
2023-04-13T04:18:23.249Z,8.00
2023-04-13T04:20:49.767Z,7.94
2023-04-13T04:23:19.794Z,7.91
2023-04-13T04:25:46.857Z,7.89
2023-04-13T04:28:18.005Z,7.90
2023-04-13T04:30:45.817Z,7.88
2023-04-13T04:33:14.495Z,7.85
2023-04-13T04:35:51.488Z,7.83
2023-04-13T04:38:18.523Z,7.80
2023-04-13T04:40:45.679Z,7.79
2023-04-13T04:43:13.401Z,7.76
2023-04-13T04:45:43.734Z,7.77
2023-04-13T04:48:11.890Z,7.77
2023-04-13T04:50:38.596Z,7.75
2023-04-13T04:53:05.635Z,7.75
2023-04-13T04:55:33.239Z,7.98
2023-04-13T04:57:59.840Z,8.47
2023-04-13T05:00:26.689Z,9.06
2023-04-13T05:02:53.473Z,9.14
2023-04-13T05:05:20.439Z,8.95
2023-04-13T05:07:47.067Z,8.87
2023-04-13T05:10:13.563Z,9.00
2023-04-13T05:12:40.148Z,8.92
2023-04-13T05:15:07.499Z,9.07
2023-04-13T05:17:34.828Z,9.39
2023-04-13T05:20:01.565Z,9.37
2023-04-13T05:22:28.220Z,9.43
2023-04-13T05:24:54.750Z,9.34
2023-04-13T05:27:21.410Z,8.94
2023-04-13T05:29:48.099Z,8.64
2023-04-13T05:32:14.730Z,8.43
2023-04-13T05:34:41.353Z,8.29
2023-04-13T05:37:08.629Z,8.19
2023-04-13T05:39:35.263Z,8.13
2023-04-13T05:42:01.881Z,8.07
2023-04-13T05:44:28.374Z,8.04
2023-04-13T05:46:55.056Z,8.00
2023-04-13T05:49:21.648Z,7.96
2023-04-13T05:51:48.338Z,7.94
2023-04-13T05:54:14.927Z,7.94
2023-04-13T05:56:41.498Z,7.88
2023-04-13T05:59:08.760Z,7.84
2023-04-13T06:01:36.511Z,7.84
2023-04-13T06:04:03.877Z,7.86
2023-04-13T06:06:30.704Z,7.89
2023-04-13T06:08:57.671Z,7.89
2023-04-13T06:11:25.960Z,7.90
2023-04-13T06:13:52.509Z,7.92
2023-04-13T06:16:19.163Z,7.86
2023-04-13T06:18:45.943Z,7.91
2023-04-13T06:21:12.577Z,7.96
2023-04-13T06:23:39.273Z,8.01
2023-04-13T06:26:06.880Z,8.03
2023-04-13T06:28:33.652Z,8.06
2023-04-13T06:31:00.568Z,8.12
2023-04-13T06:33:27.881Z,8.21
2023-04-13T06:35:54.422Z,8.23
2023-04-13T06:38:20.987Z,8.25
2023-04-13T06:40:47.571Z,8.27
2023-04-13T06:43:26.326Z,8.27
2023-04-13T06:45:59.883Z,8.21
2023-04-13T06:48:27.084Z,8.18
2023-04-13T06:50:57.196Z,8.17
2023-04-13T06:53:23.928Z,8.24
2023-04-13T06:55:50.976Z,8.28
2023-04-13T06:58:17.563Z,8.32
2023-04-13T07:00:44.671Z,8.36
2023-04-13T07:03:11.521Z,8.43
2023-04-13T07:05:38.980Z,8.46
2023-04-13T07:08:06.461Z,8.39
2023-04-13T07:10:33.059Z,8.37
2023-04-13T07:12:59.594Z,8.40
2023-04-13T07:15:26.293Z,8.44
2023-04-13T07:17:52.893Z,8.52
2023-04-13T07:20:19.557Z,8.64
2023-04-13T07:22:46.287Z,8.73
2023-04-13T07:25:12.791Z,8.74
2023-04-13T07:27:39.383Z,8.75
2023-04-13T07:30:06.864Z,8.86
2023-04-13T07:32:33.433Z,8.97
2023-04-13T07:35:02.098Z,9.07
2023-04-13T07:37:29.751Z,9.06
2023-04-13T07:39:56.381Z,9.01
2023-04-13T07:42:24.681Z,8.97
2023-04-13T07:44:54.585Z,9.00
2023-04-13T07:47:21.467Z,9.11
2023-04-13T07:49:47.972Z,9.27
2023-04-13T07:52:14.615Z,9.42
2023-04-13T07:54:41.329Z,9.61
2023-04-13T07:57:07.878Z,9.65
2023-04-13T07:59:34.428Z,9.59
2023-04-13T08:02:01.056Z,9.49
2023-04-13T08:04:27.856Z,9.35
2023-04-13T08:06:54.515Z,9.27
2023-04-13T08:09:21.322Z,9.26
2023-04-13T08:11:49.554Z,9.28
2023-04-13T08:14:16.694Z,9.30
2023-04-13T08:16:43.433Z,9.32
2023-04-13T08:19:10.096Z,9.42
2023-04-13T08:21:38.632Z,9.44
2023-04-13T08:24:06.440Z,9.50
2023-04-13T08:26:33.004Z,9.59
2023-04-13T08:28:59.756Z,9.67
2023-04-13T08:31:27.036Z,9.72
2023-04-13T08:33:53.723Z,9.71
2023-04-13T08:36:20.752Z,9.75
2023-04-13T08:38:47.604Z,9.82
2023-04-13T08:41:16.858Z,9.87
2023-04-13T08:43:43.570Z,9.89
2023-04-13T08:46:11.410Z,9.88
2023-04-13T08:48:59.045Z,9.97
2023-04-13T08:51:26.647Z,10.02
2023-04-13T08:53:53.760Z,9.99
2023-04-13T08:56:24.146Z,9.95
2023-04-13T08:59:07.578Z,9.94
2023-04-13T09:01:37.558Z,9.96
2023-04-13T09:04:11.931Z,9.97
2023-04-13T09:06:41.530Z,10.04
2023-04-13T09:09:10.870Z,10.09
2023-04-13T09:11:38.185Z,10.20
2023-04-13T09:14:04.790Z,10.29
2023-04-13T09:16:42.241Z,10.32
2023-04-13T09:19:10.138Z,10.31
2023-04-13T09:21:37.885Z,10.30
2023-04-13T09:24:06.050Z,10.27
2023-04-13T09:26:46.537Z,10.26
2023-04-13T09:29:14.656Z,10.33
2023-04-13T09:31:42.959Z,10.33
2023-04-13T09:34:12.055Z,10.24
2023-04-13T09:36:49.556Z,10.21
2023-04-13T09:39:28.282Z,10.22
2023-04-13T09:41:55.743Z,10.24
2023-04-13T09:44:28.339Z,10.33
2023-04-13T09:47:02.483Z,10.45
2023-04-13T09:49:49.773Z,10.56
2023-04-13T09:52:23.749Z,10.74
2023-04-13T09:54:59.909Z,11.01
2023-04-13T09:57:28.212Z,11.29
2023-04-13T09:59:56.475Z,11.36
2023-04-13T10:02:23.449Z,11.42
2023-04-13T10:04:50.237Z,11.39
2023-04-13T10:07:16.935Z,11.31
2023-04-13T10:09:44.325Z,11.20
2023-04-13T10:12:14.736Z,11.20
2023-04-13T10:14:44.310Z,11.33
2023-04-13T10:17:36.158Z,11.42
2023-04-13T10:20:12.707Z,11.59
2023-04-13T10:22:45.084Z,11.77
2023-04-13T10:25:29.157Z,11.88
2023-04-13T10:27:59.380Z,11.99
2023-04-13T10:30:26.747Z,12.20
2023-04-13T10:33:06.006Z,12.41
2023-04-13T10:35:43.284Z,12.57
2023-04-13T10:38:10.830Z,12.68
2023-04-13T10:40:48.138Z,12.70
2023-04-13T10:43:31.020Z,12.59
2023-04-13T10:46:08.323Z,12.43
2023-04-13T10:48:35.511Z,12.32
2023-04-13T10:51:02.289Z,12.29
2023-04-13T10:53:31.002Z,12.24
2023-04-13T10:55:57.936Z,12.23
2023-04-13T10:58:25.358Z,12.30
2023-04-13T11:00:52.285Z,12.29
2023-04-13T11:03:19.203Z,12.21
2023-04-13T11:05:48.413Z,12.20
2023-04-13T11:08:19.318Z,12.16
2023-04-13T11:10:56.538Z,12.28
2023-04-13T11:13:27.145Z,12.46
2023-04-13T11:16:04.157Z,12.58
2023-04-13T11:18:31.091Z,12.66
2023-04-13T11:20:57.741Z,12.83
2023-04-13T11:23:24.728Z,12.92
2023-04-13T11:25:59.912Z,13.06
2023-04-13T11:28:43.654Z,13.24
2023-04-13T11:31:11.630Z,13.38
2023-04-13T11:33:40.571Z,13.76
2023-04-13T11:36:08.086Z,14.05
2023-04-13T11:38:34.854Z,14.14
2023-04-13T11:41:14.917Z,14.17
2023-04-13T11:43:46.235Z,14.11
2023-04-13T11:46:15.493Z,14.14
2023-04-13T11:48:43.193Z,14.18
2023-04-13T11:51:11.162Z,14.14
2023-04-13T11:53:38.802Z,14.01
2023-04-13T11:56:06.665Z,14.05
2023-04-13T11:58:33.406Z,14.34
2023-04-13T12:01:12.765Z,14.45
2023-04-13T12:03:53.616Z,14.39
2023-04-13T12:06:27.925Z,14.33
2023-04-13T12:09:09.081Z,14.28
2023-04-13T12:11:42.119Z,14.22
2023-04-13T12:14:49.828Z,14.04
2023-04-13T12:17:34.905Z,14.04
2023-04-13T12:20:03.769Z,13.87
2023-04-13T12:22:50.793Z,13.71
2023-04-13T12:25:21.134Z,13.67
2023-04-13T12:27:52.585Z,13.60
2023-04-13T12:30:21.261Z,13.52
2023-04-13T12:32:50.875Z,13.52
2023-04-13T12:35:19.423Z,13.42
2023-04-13T12:37:47.646Z,13.37
2023-04-13T12:40:15.950Z,13.31
2023-04-13T12:42:43.778Z,13.25
2023-04-13T12:45:11.116Z,13.25
2023-04-13T12:47:38.204Z,13.34
2023-04-13T12:50:06.356Z,13.63
2023-04-13T12:52:32.961Z,13.80
2023-04-13T12:55:00.266Z,14.10
2023-04-13T12:57:28.321Z,14.43
2023-04-13T12:59:56.281Z,14.63
2023-04-13T13:02:24.349Z,14.69
2023-04-13T13:04:51.911Z,14.73
2023-04-13T13:07:19.118Z,14.68
2023-04-13T13:09:45.977Z,14.63
2023-04-13T13:12:12.836Z,14.68
2023-04-13T13:14:39.390Z,14.84
2023-04-13T13:17:05.963Z,15.08
2023-04-13T13:19:32.494Z,15.19
2023-04-13T13:22:00.299Z,15.33
2023-04-13T13:24:27.077Z,15.35
2023-04-13T13:27:19.603Z,15.26
2023-04-13T13:29:41.508Z,15.04
2023-04-13T13:32:09.312Z,15.12
2023-04-13T13:34:36.045Z,15.12
2023-04-13T13:37:03.090Z,15.21
2023-04-13T13:39:29.665Z,15.35
2023-04-13T13:41:57.377Z,15.32
2023-04-13T13:44:25.009Z,15.11
2023-04-13T13:46:51.713Z,15.14
2023-04-13T13:49:18.269Z,15.08
2023-04-13T13:51:44.842Z,15.43
2023-04-13T13:54:11.406Z,15.89
2023-04-13T13:56:38.035Z,16.17
2023-04-13T13:59:04.717Z,16.38
2023-04-13T14:06:59.863Z,16.73
2023-04-13T14:09:27.794Z,17.13
2023-04-13T14:11:54.677Z,17.48
2023-04-13T14:14:22.727Z,17.64
2023-04-13T14:16:49.433Z,17.96
2023-04-13T14:19:16.007Z,18.27
2023-04-13T14:21:42.692Z,18.41
2023-04-13T14:24:09.372Z,18.72
2023-04-13T14:26:38.217Z,18.71
2023-04-13T14:29:05.259Z,18.48
2023-04-13T14:31:31.852Z,18.84
2023-04-13T14:33:58.341Z,19.55
2023-04-13T14:36:25.468Z,19.67
2023-04-13T14:38:52.568Z,19.32
2023-04-13T14:41:19.374Z,19.25
2023-04-13T14:43:45.866Z,19.64
2023-04-13T14:46:13.445Z,19.20
2023-04-13T14:48:40.092Z,19.28
2023-04-13T14:51:07.176Z,19.42
2023-04-13T14:53:33.756Z,19.24
2023-04-13T14:56:00.334Z,19.24
2023-04-13T14:58:26.909Z,19.44
2023-04-13T15:00:54.172Z,19.23
2023-04-13T15:03:22.007Z,18.87
2023-04-13T15:05:49.871Z,18.10
2023-04-13T15:08:19.400Z,17.38
2023-04-13T15:10:46.503Z,17.62
2023-04-13T15:13:13.220Z,17.59
2023-04-13T15:15:40.772Z,17.81
2023-04-13T15:18:08.289Z,18.16
2023-04-13T15:20:34.889Z,18.63
2023-04-13T15:23:01.513Z,18.89
2023-04-13T15:25:28.555Z,18.71
2023-04-13T15:27:57.213Z,18.87
2023-04-13T15:30:29.306Z,18.94
2023-04-13T15:32:57.527Z,19.18
2023-04-13T15:35:27.465Z,18.87
2023-04-13T15:37:54.534Z,19.16
2023-04-13T15:40:22.978Z,19.79
2023-04-13T15:42:49.594Z,19.52
2023-04-13T15:45:16.193Z,18.85
2023-04-13T15:47:42.814Z,18.03
2023-04-13T15:50:09.776Z,17.48
2023-04-13T15:52:39.002Z,16.85
2023-04-13T15:55:07.044Z,16.30
2023-04-13T15:57:34.059Z,15.86
2023-04-13T16:00:01.150Z,15.52
2023-04-13T16:02:28.126Z,15.25
2023-04-13T16:04:54.997Z,15.05
2023-04-13T16:07:21.673Z,14.88
2023-04-13T16:09:51.323Z,14.73
2023-04-13T16:12:18.053Z,14.61
2023-04-13T16:14:47.131Z,14.51
2023-04-13T16:17:17.118Z,14.43
2023-04-13T16:19:46.964Z,14.37
2023-04-13T16:22:13.750Z,14.30
2023-04-13T16:24:41.098Z,14.24
2023-04-13T16:27:08.729Z,14.09
2023-04-13T16:29:35.565Z,14.04
2023-04-13T16:32:02.384Z,14.50
2023-04-13T16:34:29.382Z,14.60
2023-04-13T16:36:56.601Z,14.42
2023-04-13T16:39:23.281Z,14.21
2023-04-13T16:41:50.252Z,13.92
2023-04-13T16:44:16.972Z,13.66
2023-04-13T16:46:43.563Z,13.44
2023-04-13T16:49:10.406Z,13.19
2023-04-13T16:51:37.022Z,12.87
2023-04-13T16:54:04.595Z,12.58
2023-04-13T16:56:31.248Z,12.34
2023-04-13T16:58:58.370Z,12.21
2023-04-13T17:01:25.714Z,12.08
2023-04-13T17:03:53.354Z,11.92
2023-04-13T17:06:20.613Z,11.79
2023-04-13T17:08:47.223Z,11.77
2023-04-13T17:11:13.808Z,11.77
2023-04-13T17:13:40.559Z,11.75
2023-04-13T17:16:09.857Z,11.78
2023-04-13T17:18:36.658Z,11.86
2023-04-13T17:21:03.402Z,12.04
2023-04-13T17:23:30.103Z,12.18
2023-04-13T17:25:56.715Z,12.32
2023-04-13T17:28:24.090Z,12.45
2023-04-13T17:30:50.900Z,12.49
2023-04-13T17:33:17.613Z,12.46
2023-04-13T17:35:44.207Z,12.38
2023-04-13T17:38:11.034Z,12.25
2023-04-13T17:40:37.578Z,12.11
2023-04-13T17:43:05.744Z,11.98
2023-04-13T17:45:32.383Z,11.86
2023-04-13T17:47:58.994Z,11.73
2023-04-13T17:50:25.671Z,11.64
2023-04-13T17:52:52.202Z,11.52
2023-04-13T17:55:18.923Z,11.44
2023-04-13T17:57:45.477Z,11.36
2023-04-13T18:00:12.810Z,11.28
2023-04-13T18:02:39.540Z,11.19
2023-04-13T18:05:07.344Z,11.12
2023-04-13T18:07:33.872Z,11.04
2023-04-13T18:10:00.505Z,10.96
2023-04-13T18:12:27.086Z,10.91
2023-04-13T18:14:53.909Z,10.87
2023-04-13T18:17:21.604Z,10.80
2023-04-13T18:19:52.258Z,10.58
2023-04-13T18:22:18.748Z,10.34
2023-04-13T18:24:45.348Z,10.12
2023-04-13T18:27:12.356Z,9.91
2023-04-13T18:29:38.931Z,9.71
2023-04-13T18:32:05.667Z,9.57
2023-04-13T18:34:34.488Z,9.48
2023-04-13T18:37:02.689Z,9.39
2023-04-13T18:39:29.225Z,9.29
2023-04-13T18:41:55.796Z,9.23
2023-04-13T18:44:22.349Z,9.15
2023-04-13T18:46:48.865Z,9.07
2023-04-13T18:49:16.864Z,9.00
2023-04-13T18:51:43.888Z,8.95
2023-04-13T18:54:10.438Z,8.94
2023-04-13T18:56:37.012Z,8.96
2023-04-13T18:59:03.504Z,9.01
2023-04-13T19:01:30.088Z,9.06
2023-04-13T19:03:56.892Z,9.10
2023-04-13T19:06:23.883Z,9.17
2023-04-13T19:08:50.442Z,9.15
2023-04-13T19:11:17.770Z,9.13
2023-04-13T19:13:46.297Z,9.13
2023-04-13T19:16:13.985Z,9.13
2023-04-13T19:18:40.528Z,9.16
2023-04-13T19:21:07.119Z,9.13
2023-04-13T19:23:33.680Z,9.16
2023-04-13T19:26:00.236Z,9.19
2023-04-13T19:28:27.037Z,9.21
2023-04-13T19:30:55.085Z,9.24
2023-04-13T19:33:21.616Z,9.27
2023-04-13T19:35:49.331Z,9.32
2023-04-13T19:38:16.170Z,9.36
2023-04-13T19:40:43.577Z,9.41
2023-04-13T19:43:10.111Z,9.45
2023-04-13T19:45:36.845Z,9.50
2023-04-13T19:48:03.512Z,9.53
2023-04-13T19:50:30.142Z,9.52
2023-04-13T19:52:58.420Z,9.52
2023-04-13T19:55:25.274Z,9.54
2023-04-13T19:57:51.852Z,9.52
2023-04-13T20:00:20.137Z,9.48
2023-04-13T20:02:49.864Z,9.47
2023-04-13T20:05:18.216Z,9.44
2023-04-13T20:07:44.852Z,9.46
2023-04-13T20:10:12.340Z,9.48
2023-04-13T20:12:39.037Z,9.49
2023-04-13T20:15:06.304Z,9.50
2023-04-13T20:17:33.002Z,9.49
2023-04-13T20:20:00.191Z,9.47
2023-04-13T20:22:26.823Z,9.44
2023-04-13T20:24:53.402Z,9.41
2023-04-13T20:27:21.816Z,9.35
2023-04-13T20:29:49.481Z,9.30
2023-04-13T20:32:16.132Z,9.23
2023-04-13T20:34:43.645Z,9.20
2023-04-13T20:37:10.288Z,9.14
2023-04-13T20:39:40.299Z,9.09
2023-04-13T20:42:08.269Z,9.04
2023-04-13T20:44:38.195Z,8.95
2023-04-13T20:47:05.396Z,8.87
2023-04-13T20:49:32.046Z,8.79
2023-04-13T20:52:02.072Z,8.73
2023-04-13T20:54:28.623Z,8.63
2023-04-13T20:56:55.160Z,8.57
2023-04-13T20:59:21.941Z,8.48
2023-04-13T21:01:49.010Z,8.40
2023-04-13T21:04:15.728Z,8.32
2023-04-13T21:06:42.469Z,8.25
2023-04-13T21:09:09.221Z,8.19
2023-04-13T21:11:35.951Z,8.11
2023-04-13T21:14:02.969Z,8.01
2023-04-13T21:16:30.006Z,7.93
2023-04-13T21:18:57.096Z,7.91
2023-04-13T21:21:25.108Z,7.96
2023-04-13T21:23:52.633Z,7.97
2023-04-13T21:26:19.234Z,8.02
2023-04-13T21:28:45.786Z,8.04
2023-04-13T21:31:12.311Z,8.04
2023-04-13T21:33:38.846Z,8.04
2023-04-13T21:38:40.982Z,8.02
2023-04-13T21:41:18.010Z,8.00
2023-04-13T21:43:44.944Z,7.98
2023-04-13T21:46:13.234Z,7.96
2023-04-13T21:48:40.737Z,7.94
2023-04-13T21:51:08.885Z,7.92
2023-04-13T21:53:36.435Z,7.89
2023-04-13T21:56:04.365Z,7.87
2023-04-13T21:58:41.821Z,7.84
2023-04-13T22:01:08.805Z,7.83
2023-04-13T22:03:40.150Z,7.77
2023-04-13T22:06:08.679Z,7.72
2023-04-13T22:08:35.535Z,7.72
2023-04-13T22:11:02.881Z,7.70
2023-04-13T22:13:29.927Z,7.68
2023-04-13T22:15:56.714Z,7.68
2023-04-13T22:18:23.384Z,7.68
2023-04-13T22:20:50.084Z,7.67
2023-04-13T22:23:16.610Z,7.66
2023-04-13T22:25:51.029Z,7.60
2023-04-13T22:28:17.574Z,7.61
2023-04-13T22:30:44.424Z,7.60
2023-04-13T22:33:11.104Z,7.59
2023-04-13T22:35:37.651Z,7.58
2023-04-13T22:38:04.166Z,7.61
2023-04-13T22:40:31.127Z,7.62
2023-04-13T22:42:57.616Z,7.61
2023-04-13T22:45:24.104Z,7.62
2023-04-13T22:47:54.115Z,7.63
2023-04-13T22:50:20.806Z,7.63
2023-04-13T22:52:47.321Z,7.63
2023-04-13T22:55:14.041Z,7.61
2023-04-13T22:57:40.573Z,7.60
2023-04-13T23:00:07.662Z,7.59
2023-04-13T23:02:34.477Z,7.58
2023-04-13T23:05:01.299Z,7.57
2023-04-13T23:07:27.932Z,7.55
2023-04-13T23:09:54.481Z,7.56
2023-04-13T23:12:21.151Z,7.58
2023-04-13T23:14:47.652Z,7.62
2023-04-13T23:17:14.473Z,7.63
2023-04-13T23:19:41.072Z,7.63
2023-04-13T23:22:07.652Z,7.66
2023-04-13T23:24:34.193Z,7.67
2023-04-13T23:27:00.739Z,7.65
2023-04-13T23:29:27.333Z,7.64
2023-04-13T23:31:57.468Z,7.63
2023-04-13T23:34:24.061Z,7.60
2023-04-13T23:36:50.704Z,7.57
2023-04-13T23:39:17.260Z,7.52
2023-04-13T23:41:43.784Z,7.49
2023-04-13T23:44:11.061Z,7.44
2023-04-13T23:46:38.686Z,7.39
2023-04-13T23:49:05.786Z,7.37
2023-04-13T23:51:32.313Z,7.34
2023-04-13T23:53:58.910Z,7.28
2023-04-13T23:56:26.095Z,7.26
2023-04-13T23:58:52.642Z,7.20
